sensor_id;sensor_type;location;lat;lon;timestamp;P1;durP1;ratioP1;P2;durP2;ratioP2
25649;SDS011;13505;45.196;5.696;2023-11-18T05:33:19;10.43;;;5.28;;
25649;SDS011;13505;45.196;5.696;2023-11-18T05:38:10;10.93;;;4.82;;
25649;SDS011;13505;45.196;5.696;2023-11-18T05:43:01;10.90;;;4.32;;
25649;SDS011;13505;45.196;5.696;2023-11-18T05:47:55;6.78;;;4.10;;
25649;SDS011;13505;45.196;5.696;2023-11-18T05:52:46;8.02;;;4.03;;
25649;SDS011;13505;45.196;5.696;2023-11-18T05:57:38;7.13;;;4.32;;
25649;SDS011;13505;45.196;5.696;2023-11-18T06:02:28;10.68;;;4.50;;
25649;SDS011;13505;45.196;5.696;2023-11-18T06:07:20;8.77;;;4.55;;
25649;SDS011;13505;45.196;5.696;2023-11-18T06:12:10;7.10;;;4.77;;
25649;SDS011;13505;45.196;5.696;2023-11-18T06:17:01;9.18;;;4.68;;
25649;SDS011;13505;45.196;5.696;2023-11-18T06:21:51;11.15;;;4.70;;
25649;SDS011;13505;45.196;5.696;2023-11-18T06:26:41;9.45;;;5.15;;
25649;SDS011;13505;45.196;5.696;2023-11-18T06:31:32;11.23;;;4.97;;
25649;SDS011;13505;45.196;5.696;2023-11-18T06:36:22;9.75;;;5.20;;
25649;SDS011;13505;45.196;5.696;2023-11-18T06:41:15;9.15;;;5.22;;
25649;SDS011;13505;45.196;5.696;2023-11-18T06:46:07;8.40;;;5.03;;
25649;SDS011;13505;45.196;5.696;2023-11-18T06:51:00;8.85;;;4.78;;
25649;SDS011;13505;45.196;5.696;2023-11-18T06:55:52;8.68;;;4.70;;
25649;SDS011;13505;45.196;5.696;2023-11-18T07:00:42;9.20;;;4.60;;
25649;SDS011;13505;45.196;5.696;2023-11-18T07:05:32;11.05;;;4.50;;
25649;SDS011;13505;45.196;5.696;2023-11-18T07:10:23;10.47;;;4.90;;
25649;SDS011;13505;45.196;5.696;2023-11-18T07:15:14;10.13;;;4.47;;
25649;SDS011;13505;45.196;5.696;2023-11-18T07:20:05;8.18;;;4.60;;
25649;SDS011;13505;45.196;5.696;2023-11-18T07:24:55;9.13;;;4.60;;
25649;SDS011;13505;45.196;5.696;2023-11-18T07:29:46;7.53;;;3.72;;
25649;SDS011;13505;45.196;5.696;2023-11-18T07:34:37;10.73;;;4.53;;
25649;SDS011;13505;45.196;5.696;2023-11-18T07:39:28;5.63;;;3.78;;
25649;SDS011;13505;45.196;5.696;2023-11-18T07:44:33;8.65;;;4.35;;
25649;SDS011;13505;45.196;5.696;2023-11-18T07:49:24;7.90;;;4.60;;
25649;SDS011;13505;45.196;5.696;2023-11-18T07:54:16;8.40;;;4.10;;
25649;SDS011;13505;45.196;5.696;2023-11-18T07:59:08;7.90;;;5.47;;
25649;SDS011;13505;45.196;5.696;2023-11-18T08:03:58;8.90;;;5.05;;
25649;SDS011;13505;45.196;5.696;2023-11-18T08:08:48;8.70;;;4.85;;
25649;SDS011;13505;45.196;5.696;2023-11-18T08:13:39;9.47;;;4.73;;
25649;SDS011;13505;45.196;5.696;2023-11-18T08:18:30;8.85;;;4.80;;
25649;SDS011;13505;45.196;5.696;2023-11-18T08:23:21;9.05;;;5.03;;
25649;SDS011;13505;45.196;5.696;2023-11-18T08:28:11;8.60;;;4.65;;
25649;SDS011;13505;45.196;5.696;2023-11-18T08:33:03;8.95;;;4.75;;
25649;SDS011;13505;45.196;5.696;2023-11-18T08:37:54;10.95;;;5.30;;
25649;SDS011;13505;45.196;5.696;2023-11-18T08:42:45;7.17;;;4.23;;
25649;SDS011;13505;45.196;5.696;2023-11-18T08:47:42;9.05;;;4.95;;
25649;SDS011;13505;45.196;5.696;2023-11-18T08:52:36;8.60;;;4.70;;
25649;SDS011;13505;45.196;5.696;2023-11-18T08:57:26;7.15;;;4.65;;
25649;SDS011;13505;45.196;5.696;2023-11-18T09:02:17;9.35;;;5.22;;
25649;SDS011;13505;45.196;5.696;2023-11-18T09:07:13;9.57;;;4.97;;
25649;SDS011;13505;45.196;5.696;2023-11-18T09:12:03;6.07;;;3.60;;
25649;SDS011;13505;45.196;5.696;2023-11-18T09:16:58;7.13;;;3.63;;
25649;SDS011;13505;45.196;5.696;2023-11-18T09:21:49;6.20;;;3.60;;
25649;SDS011;13505;45.196;5.696;2023-11-18T09:26:42;8.55;;;4.10;;
25649;SDS011;13505;45.196;5.696;2023-11-18T09:31:34;6.50;;;4.05;;
25649;SDS011;13505;45.196;5.696;2023-11-18T09:36:26;7.65;;;3.40;;
25649;SDS011;13505;45.196;5.696;2023-11-18T09:41:18;6.85;;;3.65;;
25649;SDS011;13505;45.196;5.696;2023-11-18T09:46:09;7.15;;;3.85;;
25649;SDS011;13505;45.196;5.696;2023-11-18T09:51:03;8.73;;;4.25;;
25649;SDS011;13505;45.196;5.696;2023-11-18T09:55:59;7.15;;;4.30;;
25649;SDS011;13505;45.196;5.696;2023-11-18T10:00:59;6.47;;;3.45;;
25649;SDS011;13505;45.196;5.696;2023-11-18T10:05:53;9.50;;;3.47;;
25649;SDS011;13505;45.196;5.696;2023-11-18T10:10:45;6.35;;;3.28;;
25649;SDS011;13505;45.196;5.696;2023-11-18T10:15:35;9.70;;;3.20;;
25649;SDS011;13505;45.196;5.696;2023-11-18T10:20:42;8.27;;;3.13;;
25649;SDS011;13505;45.196;5.696;2023-11-18T10:25:37;5.43;;;3.03;;
25649;SDS011;13505;45.196;5.696;2023-11-18T10:30:44;7.45;;;2.40;;
25649;SDS011;13505;45.196;5.696;2023-11-18T10:35:37;4.22;;;2.63;;
25649;SDS011;13505;45.196;5.696;2023-11-18T10:40:27;3.65;;;2.45;;
25649;SDS011;13505;45.196;5.696;2023-11-18T10:45:24;5.78;;;3.00;;
25649;SDS011;13505;45.196;5.696;2023-11-18T10:50:17;4.03;;;2.50;;
25649;SDS011;13505;45.196;5.696;2023-11-18T10:55:09;5.97;;;2.90;;
25649;SDS011;13505;45.196;5.696;2023-11-18T11:00:03;5.70;;;3.20;;
25649;SDS011;13505;45.196;5.696;2023-11-18T11:05:03;7.78;;;3.70;;
25649;SDS011;13505;45.196;5.696;2023-11-18T11:09:53;6.55;;;3.58;;
25649;SDS011;13505;45.196;5.696;2023-11-18T11:14:50;6.07;;;3.30;;
25649;SDS011;13505;45.196;5.696;2023-11-18T11:29:45;4.38;;;2.75;;
25649;SDS011;13505;45.196;5.696;2023-11-18T11:34:51;6.97;;;2.58;;
25649;SDS011;13505;45.196;5.696;2023-11-18T11:39:44;4.03;;;2.38;;
25649;SDS011;13505;45.196;5.696;2023-11-18T11:44:37;3.85;;;2.60;;
25649;SDS011;13505;45.196;5.696;2023-11-18T11:49:34;6.50;;;3.28;;
25649;SDS011;13505;45.196;5.696;2023-11-18T11:54:34;4.83;;;2.70;;
25649;SDS011;13505;45.196;5.696;2023-11-18T11:59:34;5.07;;;2.80;;
25649;SDS011;13505;45.196;5.696;2023-11-18T12:04:34;5.90;;;2.30;;
25649;SDS011;13505;45.196;5.696;2023-11-18T12:09:31;4.68;;;3.03;;
25649;SDS011;13505;45.196;5.696;2023-11-18T12:14:27;5.75;;;2.65;;
25649;SDS011;13505;45.196;5.696;2023-11-18T12:19:30;4.60;;;2.90;;
25649;SDS011;13505;45.196;5.696;2023-11-18T12:24:36;9.50;;;3.30;;
25649;SDS011;13505;45.196;5.696;2023-11-18T12:29:30;6.57;;;3.07;;
25649;SDS011;13505;45.196;5.696;2023-11-18T12:34:49;6.90;;;3.05;;
25649;SDS011;13505;45.196;5.696;2023-11-18T12:39:49;8.80;;;3.50;;
25649;SDS011;13505;45.196;5.696;2023-11-18T12:50:22;6.40;;;3.78;;
25649;SDS011;13505;45.196;5.696;2023-11-18T12:55:18;9.55;;;3.92;;
25649;SDS011;13505;45.196;5.696;2023-11-18T13:00:11;6.57;;;3.45;;
25649;SDS011;13505;45.196;5.696;2023-11-18T13:05:07;9.57;;;4.22;;
25649;SDS011;13505;45.196;5.696;2023-11-18T13:09:59;8.15;;;3.97;;
25649;SDS011;13505;45.196;5.696;2023-11-18T13:14:51;9.10;;;3.95;;
25649;SDS011;13505;45.196;5.696;2023-11-18T13:19:42;7.80;;;3.92;;
25649;SDS011;13505;45.196;5.696;2023-11-18T13:24:33;9.30;;;3.70;;
25649;SDS011;13505;45.196;5.696;2023-11-18T13:29:29;6.70;;;3.72;;
25649;SDS011;13505;45.196;5.696;2023-11-18T13:34:21;6.15;;;3.65;;
25649;SDS011;13505;45.196;5.696;2023-11-18T13:39:20;7.20;;;3.50;;
25649;SDS011;13505;45.196;5.696;2023-11-18T13:44:10;5.43;;;3.45;;
25649;SDS011;13505;45.196;5.696;2023-11-18T13:49:05;6.05;;;3.50;;
25649;SDS011;13505;45.196;5.696;2023-11-18T13:53:56;7.10;;;3.60;;
25649;SDS011;13505;45.196;5.696;2023-11-18T13:58:46;5.65;;;3.22;;
25649;SDS011;13505;45.196;5.696;2023-11-18T14:03:37;5.18;;;2.92;;
25649;SDS011;13505;45.196;5.696;2023-11-18T14:08:28;4.95;;;2.50;;
25649;SDS011;13505;45.196;5.696;2023-11-18T14:13:19;8.30;;;2.92;;
25649;SDS011;13505;45.196;5.696;2023-11-18T14:18:09;3.50;;;2.30;;
25649;SDS011;13505;45.196;5.696;2023-11-18T14:23:01;4.43;;;2.10;;
25649;SDS011;13505;45.196;5.696;2023-11-18T14:27:53;5.35;;;2.55;;
25649;SDS011;13505;45.196;5.696;2023-11-18T14:32:43;5.77;;;2.00;;
25649;SDS011;13505;45.196;5.696;2023-11-18T14:37:34;5.90;;;2.50;;
25649;SDS011;13505;45.196;5.696;2023-11-18T14:42:24;5.80;;;2.33;;
25649;SDS011;13505;45.196;5.696;2023-11-18T14:47:14;3.20;;;1.92;;
25649;SDS011;13505;45.196;5.696;2023-11-18T14:52:05;3.53;;;1.90;;
25649;SDS011;13505;45.196;5.696;2023-11-18T14:56:57;6.13;;;2.08;;
25649;SDS011;13505;45.196;5.696;2023-11-18T15:01:48;4.43;;;2.10;;
25649;SDS011;13505;45.196;5.696;2023-11-18T15:06:38;5.15;;;1.75;;
25649;SDS011;13505;45.196;5.696;2023-11-18T15:11:28;3.80;;;2.28;;
25649;SDS011;13505;45.196;5.696;2023-11-18T15:16:19;4.50;;;2.30;;
25649;SDS011;13505;45.196;5.696;2023-11-18T15:21:09;5.95;;;2.30;;
25649;SDS011;13505;45.196;5.696;2023-11-18T15:26:04;5.78;;;3.08;;
25649;SDS011;13505;45.196;5.696;2023-11-18T15:30:57;5.63;;;2.83;;
25649;SDS011;13505;45.196;5.696;2023-11-18T15:35:47;8.20;;;2.50;;
25649;SDS011;13505;45.196;5.696;2023-11-18T15:40:37;13.85;;;3.28;;
25649;SDS011;13505;45.196;5.696;2023-11-18T15:45:28;7.13;;;2.83;;
25649;SDS011;13505;45.196;5.696;2023-11-18T15:50:18;5.80;;;3.17;;
25649;SDS011;13505;45.196;5.696;2023-11-18T15:55:08;5.13;;;3.10;;
25649;SDS011;13505;45.196;5.696;2023-11-18T15:59:59;6.05;;;2.90;;
25649;SDS011;13505;45.196;5.696;2023-11-18T16:04:54;5.15;;;2.85;;
25649;SDS011;13505;45.196;5.696;2023-11-18T16:09:45;5.03;;;2.60;;
25649;SDS011;13505;45.196;5.696;2023-11-18T16:14:36;5.03;;;3.10;;
25649;SDS011;13505;45.196;5.696;2023-11-18T16:19:26;4.20;;;2.38;;
25649;SDS011;13505;45.196;5.696;2023-11-18T16:24:17;5.90;;;2.90;;
25649;SDS011;13505;45.196;5.696;2023-11-18T16:29:07;4.38;;;2.63;;
25649;SDS011;13505;45.196;5.696;2023-11-18T16:33:57;9.10;;;2.90;;
25649;SDS011;13505;45.196;5.696;2023-11-18T16:38:47;6.45;;;3.45;;
25649;SDS011;13505;45.196;5.696;2023-11-18T16:43:38;9.77;;;3.38;;
25649;SDS011;13505;45.196;5.696;2023-11-18T16:48:29;10.93;;;3.38;;
25649;SDS011;13505;45.196;5.696;2023-11-18T16:53:19;7.25;;;4.10;;
25649;SDS011;13505;45.196;5.696;2023-11-18T16:58:10;6.07;;;3.37;;
25649;SDS011;13505;45.196;5.696;2023-11-18T17:03:00;10.45;;;3.80;;
25649;SDS011;13505;45.196;5.696;2023-11-18T17:07:52;11.95;;;4.80;;
25649;SDS011;13505;45.196;5.696;2023-11-18T17:12:44;7.95;;;3.67;;
25649;SDS011;13505;45.196;5.696;2023-11-18T17:17:35;20.38;;;4.28;;
25649;SDS011;13505;45.196;5.696;2023-11-18T17:22:26;8.63;;;4.88;;
25649;SDS011;13505;45.196;5.696;2023-11-18T17:27:16;10.52;;;5.25;;
25649;SDS011;13505;45.196;5.696;2023-11-18T17:32:07;11.63;;;5.80;;
25649;SDS011;13505;45.196;5.696;2023-11-18T17:36:57;14.43;;;6.33;;
25649;SDS011;13505;45.196;5.696;2023-11-18T17:41:47;11.87;;;5.47;;
25649;SDS011;13505;45.196;5.696;2023-11-18T17:46:38;10.25;;;5.10;;
25649;SDS011;13505;45.196;5.696;2023-11-18T17:51:28;15.55;;;7.00;;
25649;SDS011;13505;45.196;5.696;2023-11-18T17:56:19;13.63;;;6.05;;
25649;SDS011;13505;45.196;5.696;2023-11-18T18:01:09;10.20;;;5.50;;
25649;SDS011;13505;45.196;5.696;2023-11-18T18:06:00;13.32;;;5.70;;
25649;SDS011;13505;45.196;5.696;2023-11-18T18:10:50;9.97;;;5.40;;
25649;SDS011;13505;45.196;5.696;2023-11-18T18:15:40;13.00;;;5.20;;
25649;SDS011;13505;45.196;5.696;2023-11-18T18:20:31;9.38;;;5.32;;
25649;SDS011;13505;45.196;5.696;2023-11-18T18:25:21;11.20;;;5.83;;
25649;SDS011;13505;45.196;5.696;2023-11-18T18:30:12;13.52;;;7.05;;
25649;SDS011;13505;45.196;5.696;2023-11-18T18:35:03;14.70;;;6.80;;
25649;SDS011;13505;45.196;5.696;2023-11-18T18:39:53;12.15;;;6.25;;
25649;SDS011;13505;45.196;5.696;2023-11-18T18:44:44;19.05;;;8.27;;
25649;SDS011;13505;45.196;5.696;2023-11-18T18:49:35;16.13;;;8.90;;
25649;SDS011;13505;45.196;5.696;2023-11-18T18:54:26;19.08;;;10.85;;
25649;SDS011;13505;45.196;5.696;2023-11-18T18:59:17;23.75;;;9.35;;
25649;SDS011;13505;45.196;5.696;2023-11-18T19:04:07;26.70;;;11.98;;
25649;SDS011;13505;45.196;5.696;2023-11-18T19:08:58;17.48;;;9.35;;
25649;SDS011;13505;45.196;5.696;2023-11-18T19:13:49;17.48;;;6.78;;
25649;SDS011;13505;45.196;5.696;2023-11-18T19:18:39;14.23;;;9.02;;
25649;SDS011;13505;45.196;5.696;2023-11-18T19:23:30;21.25;;;9.63;;
25649;SDS011;13505;45.196;5.696;2023-11-18T19:28:20;17.13;;;8.60;;
25649;SDS011;13505;45.196;5.696;2023-11-18T19:33:12;14.68;;;8.57;;
25649;SDS011;13505;45.196;5.696;2023-11-18T19:38:02;13.77;;;8.00;;
25649;SDS011;13505;45.196;5.696;2023-11-18T19:42:56;18.63;;;8.40;;
25649;SDS011;13505;45.196;5.696;2023-11-18T19:47:46;19.27;;;10.43;;
25649;SDS011;13505;45.196;5.696;2023-11-18T19:52:37;16.35;;;9.10;;
25649;SDS011;13505;45.196;5.696;2023-11-18T19:57:28;17.30;;;10.10;;
25649;SDS011;13505;45.196;5.696;2023-11-18T20:02:20;15.45;;;7.95;;
25649;SDS011;13505;45.196;5.696;2023-11-18T20:07:11;14.23;;;7.95;;
25649;SDS011;13505;45.196;5.696;2023-11-18T20:12:24;19.13;;;7.78;;
25649;SDS011;13505;45.196;5.696;2023-11-18T20:17:15;13.88;;;8.35;;
25649;SDS011;13505;45.196;5.696;2023-11-18T20:22:05;14.43;;;8.23;;
25649;SDS011;13505;45.196;5.696;2023-11-18T20:26:55;17.77;;;8.90;;
25649;SDS011;13505;45.196;5.696;2023-11-18T20:31:46;17.10;;;8.27;;
25649;SDS011;13505;45.196;5.696;2023-11-18T20:36:36;20.47;;;9.00;;
25649;SDS011;13505;45.196;5.696;2023-11-18T20:41:27;17.92;;;9.27;;
25649;SDS011;13505;45.196;5.696;2023-11-18T20:46:18;17.70;;;8.13;;
25649;SDS011;13505;45.196;5.696;2023-11-18T20:51:10;17.57;;;8.87;;
25649;SDS011;13505;45.196;5.696;2023-11-18T20:56:00;20.08;;;9.68;;
25649;SDS011;13505;45.196;5.696;2023-11-18T21:00:51;18.85;;;9.63;;
25649;SDS011;13505;45.196;5.696;2023-11-18T21:05:43;19.02;;;9.82;;
25649;SDS011;13505;45.196;5.696;2023-11-18T21:10:33;16.67;;;9.27;;
25649;SDS011;13505;45.196;5.696;2023-11-18T21:15:43;15.57;;;8.55;;
25649;SDS011;13505;45.196;5.696;2023-11-18T21:20:34;20.47;;;9.73;;
25649;SDS011;13505;45.196;5.696;2023-11-18T21:25:24;23.48;;;9.90;;
25649;SDS011;13505;45.196;5.696;2023-11-18T21:30:15;15.43;;;9.13;;
25649;SDS011;13505;45.196;5.696;2023-11-18T21:35:05;18.35;;;9.13;;
25649;SDS011;13505;45.196;5.696;2023-11-18T21:39:56;16.27;;;9.43;;
25649;SDS011;13505;45.196;5.696;2023-11-18T21:44:47;17.27;;;8.90;;
25649;SDS011;13505;45.196;5.696;2023-11-18T21:49:37;15.97;;;9.43;;
25649;SDS011;13505;45.196;5.696;2023-11-18T21:54:28;17.77;;;9.20;;
25649;SDS011;13505;45.196;5.696;2023-11-18T21:59:20;17.20;;;8.57;;
25649;SDS011;13505;45.196;5.696;2023-11-18T22:04:10;15.15;;;7.85;;
25649;SDS011;13505;45.196;5.696;2023-11-18T22:09:00;13.88;;;8.05;;
25649;SDS011;13505;45.196;5.696;2023-11-18T22:13:51;18.38;;;8.40;;
25649;SDS011;13505;45.196;5.696;2023-11-18T22:18:42;19.40;;;9.02;;
25649;SDS011;13505;45.196;5.696;2023-11-18T22:23:33;18.58;;;9.30;;
25649;SDS011;13505;45.196;5.696;2023-11-18T22:28:24;16.37;;;9.37;;
25649;SDS011;13505;45.196;5.696;2023-11-18T22:33:14;16.95;;;8.68;;
25649;SDS011;13505;45.196;5.696;2023-11-18T22:38:04;17.83;;;9.45;;
25649;SDS011;13505;45.196;5.696;2023-11-18T22:42:55;19.58;;;9.82;;
25649;SDS011;13505;45.196;5.696;2023-11-18T22:47:46;17.90;;;9.18;;
25649;SDS011;13505;45.196;5.696;2023-11-18T22:52:40;17.83;;;9.90;;
25649;SDS011;13505;45.196;5.696;2023-11-18T22:57:30;20.00;;;9.57;;
